Time;durP1;ratioP1;P1;durP2;ratioP2;P2;SDS_P1;SDS_P2;PMS_P1;PMS_P2;Temp;Humidity;BMP_temperature;BMP_pressure;BME280_temperature;BME280_humidity;BME280_pressure;Samples;Min_cycle;Max_cycle;Signal;HPM_P1;HPM_P2
2023/08/13 00:00:39;;;;;;;0.30;0.30;;;;;;;18.98;85.31;99545.28;5019199;28;20156;-72
2023/08/13 00:03:05;;;;;;;0.20;0.20;;;;;;;19.03;85.42;99533.22;5005179;28;20049;-71
2023/08/13 00:05:31;;;;;;;0.20;0.20;;;;;;;19.08;85.58;99530.25;5005599;28;20052;-71
2023/08/13 00:07:58;;;;;;;0.28;0.28;;;;;;;19.11;85.14;99532.34;5025596;28;20520;-72
2023/08/13 00:10:25;;;;;;;0.20;0.20;;;;;;;19.11;84.85;99526.78;5002491;28;20148;-72
2023/08/13 00:12:51;;;;;;;0.20;0.20;;;;;;;19.08;84.71;99527.47;5023907;28;20081;-72
2023/08/13 00:15:18;;;;;;;0.20;0.20;;;;;;;18.99;85.03;99524.78;5006306;28;20053;-72
2023/08/13 00:17:44;;;;;;;0.30;0.30;;;;;;;18.89;85.64;99524.31;4988323;28;20056;-72
2023/08/13 00:20:11;;;;;;;0.20;0.20;;;;;;;18.78;86.62;99521.97;5007678;28;20156;-72
2023/08/13 00:22:38;;;;;;;0.20;0.20;;;;;;;18.67;86.70;99515.22;5006695;28;20060;-73
2023/08/13 00:25:07;;;;;;;0.20;0.20;;;;;;;18.58;87.44;99528.31;5020389;28;20083;-72
2023/08/13 00:27:33;;;;;;;0.20;0.20;;;;;;;18.49;86.63;99507.03;4986013;28;20103;-72
2023/08/13 00:30:00;;;;;;;0.20;0.20;;;;;;;18.50;86.32;99508.66;5010846;28;20563;-72
2023/08/13 00:32:27;;;;;;;0.20;0.20;;;;;;;18.56;86.65;99506.50;5009273;28;20049;-73
2023/08/13 00:34:53;;;;;;;0.20;0.20;;;;;;;18.62;86.76;99494.06;5023623;28;20062;-74
2023/08/13 00:37:19;;;;;;;0.20;0.20;;;;;;;18.64;86.53;99491.78;5025555;28;20050;-73
2023/08/13 00:39:45;;;;;;;0.20;0.20;;;;;;;18.64;85.46;99500.06;5007807;28;20060;-73
2023/08/13 00:42:13;;;;;;;0.20;0.20;;;;;;;18.61;85.87;99486.91;4993721;28;20060;-74
2023/08/13 00:44:39;;;;;;;0.20;0.20;;;;;;;18.58;85.58;99497.88;4991222;28;20049;-75
2023/08/13 00:47:06;;;;;;;0.20;0.20;;;;;;;18.55;85.85;99510.41;5022885;28;20148;-73
2023/08/13 00:49:33;;;;;;;0.20;0.20;;;;;;;18.60;85.56;99506.66;5010261;28;20045;-74
2023/08/13 00:52:00;;;;;;;0.20;0.20;;;;;;;18.65;85.61;99506.44;5012541;28;20052;-74
2023/08/13 00:54:27;;;;;;;0.20;0.20;;;;;;;18.63;85.67;99489.34;4989762;28;20060;-74
2023/08/13 00:56:53;;;;;;;0.20;0.20;;;;;;;18.55;86.65;99494.59;4988742;28;20111;-73
2023/08/13 00:59:22;;;;;;;0.20;0.20;;;;;;;18.47;87.43;99498.25;5023677;28;20087;-74
2023/08/13 01:01:49;;;;;;;0.20;0.20;;;;;;;18.38;87.28;99501.06;4976323;28;20586;-73
2023/08/13 01:04:15;;;;;;;0.20;0.20;;;;;;;18.30;86.52;99499.16;5007529;28;20434;-73
2023/08/13 01:06:48;;;;;;;0.20;0.20;;;;;;;18.26;87.35;99487.97;5005226;28;20061;-74
2023/08/13 01:09:25;;;;;;;0.20;0.20;;;;;;;18.20;88.50;99482.97;5006388;28;20300;-73
2023/08/13 01:11:59;;;;;;;0.20;0.20;;;;;;;18.17;87.44;99484.44;5033600;28;20228;-73
2023/08/13 01:14:40;;;;;;;0.20;0.20;;;;;;;18.06;88.04;99477.66;5009030;28;20053;-73
2023/08/13 01:17:07;;;;;;;0.20;0.20;;;;;;;18.13;88.21;99489.81;5002793;28;20413;-73
2023/08/13 01:19:34;;;;;;;0.20;0.20;;;;;;;18.12;88.98;99490.94;4972403;28;20056;-72
2023/08/13 01:22:01;;;;;;;0.20;0.20;;;;;;;18.12;89.42;99492.94;5005959;28;20045;-73
2023/08/13 01:24:28;;;;;;;0.20;0.20;;;;;;;18.11;90.03;99483.81;5012322;28;20566;-73
2023/08/13 01:27:01;;;;;;;0.20;0.20;;;;;;;18.08;90.37;99475.34;5004765;28;20054;-72
2023/08/13 01:29:35;;;;;;;0.20;0.20;;;;;;;18.05;90.01;99476.84;5024315;28;20136;-73
2023/08/13 01:32:05;;;;;;;0.22;0.22;;;;;;;18.07;90.72;99480.09;5007144;28;20057;-74
2023/08/13 01:34:31;;;;;;;0.20;0.20;;;;;;;18.08;90.93;99481.72;5022217;28;20099;-72
2023/08/13 01:36:58;;;;;;;0.20;0.20;;;;;;;18.10;91.16;99486.88;5003954;28;20071;-73
2023/08/13 01:39:24;;;;;;;0.43;0.30;;;;;;;18.12;91.20;99487.41;5022226;28;20148;-74
2023/08/13 01:41:54;;;;;;;0.20;0.20;;;;;;;18.13;91.46;99484.28;5023023;28;20053;-73
2023/08/13 01:44:20;;;;;;;0.20;0.20;;;;;;;18.14;91.77;99479.56;5024584;28;20591;-73
2023/08/13 01:46:46;;;;;;;0.20;0.20;;;;;;;18.14;91.66;99479.56;5021038;28;20090;-73
2023/08/13 01:49:13;;;;;;;0.20;0.20;;;;;;;18.12;91.85;99479.88;5023985;28;20088;-73
2023/08/13 01:51:39;;;;;;;0.20;0.20;;;;;;;18.13;92.37;99484.28;5008025;28;20042;-72
2023/08/13 01:54:05;;;;;;;0.20;0.20;;;;;;;18.12;92.36;99477.13;5008604;28;20038;-73
2023/08/13 01:56:32;;;;;;;0.22;0.22;;;;;;;18.12;92.16;99482.66;4991441;28;20049;-73
2023/08/13 01:58:59;;;;;;;0.20;0.20;;;;;;;18.18;92.33;99483.28;5008387;28;20065;-73
2023/08/13 02:01:26;;;;;;;0.20;0.20;;;;;;;18.21;91.78;99488.13;5006942;28;20077;-73
2023/08/13 02:03:52;;;;;;;0.20;0.20;;;;;;;18.26;92.18;99478.84;5005900;28;20052;-73
2023/08/13 02:06:20;;;;;;;0.20;0.20;;;;;;;18.26;91.97;99471.38;5005112;28;20057;-73
2023/08/13 02:08:46;;;;;;;0.20;0.20;;;;;;;18.23;92.12;99471.22;5009634;28;20575;-73
2023/08/13 02:11:12;;;;;;;0.20;0.20;;;;;;;18.20;92.16;99464.38;5024496;28;20144;-73
2023/08/13 02:13:38;;;;;;;0.20;0.20;;;;;;;18.19;92.39;99470.28;5003476;28;20073;-72
2023/08/13 02:16:06;;;;;;;0.22;0.22;;;;;;;18.14;93.01;99472.06;5023560;28;20060;-74
2023/08/13 02:18:32;;;;;;;0.20;0.20;;;;;;;18.15;93.40;99467.34;4991031;28;20052;-73
2023/08/13 02:20:58;;;;;;;0.20;0.20;;;;;;;18.19;93.24;99473.03;4984852;28;20499;-72
2023/08/13 02:23:25;;;;;;;0.20;0.20;;;;;;;18.17;93.22;99473.34;5008396;28;20509;-73
2023/08/13 02:25:53;;;;;;;0.20;0.20;;;;;;;18.23;93.08;99465.69;5021378;28;20594;-72
2023/08/13 02:28:19;;;;;;;0.20;0.20;;;;;;;18.28;92.95;99460.78;4989791;28;20045;-73
2023/08/13 02:30:45;;;;;;;0.20;0.20;;;;;;;18.38;92.41;99462.34;5022507;28;20489;-71
2023/08/13 02:33:13;;;;;;;0.20;0.20;;;;;;;18.45;92.36;99450.72;5004260;28;20041;-72
2023/08/13 02:35:39;;;;;;;0.20;0.20;;;;;;;18.46;92.19;99455.13;5023469;28;20148;-71
2023/08/13 02:38:05;;;;;;;0.20;0.20;;;;;;;18.42;92.15;99468.00;5002547;28;20069;-72
2023/08/13 02:40:31;;;;;;;0.20;0.20;;;;;;;18.40;92.52;99459.22;4989841;28;20100;-73
2023/08/13 02:42:58;;;;;;;0.20;0.20;;;;;;;18.40;92.37;99465.56;5004026;28;20046;-73
2023/08/13 02:45:24;;;;;;;0.20;0.20;;;;;;;18.46;92.24;99468.94;5022695;28;20084;-72
2023/08/13 02:47:50;;;;;;;0.20;0.20;;;;;;;18.52;92.33;99461.25;5022572;28;20540;-74
2023/08/13 02:50:18;;;;;;;0.20;0.20;;;;;;;18.54;91.99;99457.00;5007068;28;20071;-72
2023/08/13 02:52:44;;;;;;;0.30;0.30;;;;;;;18.58;91.90;99459.91;4998727;28;20514;-73
2023/08/13 02:55:10;;;;;;;0.20;0.20;;;;;;;18.61;91.59;99453.69;5021953;28;20088;-72
2023/08/13 02:57:37;;;;;;;0.25;0.25;;;;;;;18.61;91.90;99453.69;5021617;28;20056;-72
2023/08/13 03:00:03;;;;;;;0.20;0.20;;;;;;;18.71;91.62;99458.00;4988063;28;20049;-72
2023/08/13 03:02:32;;;;;;;0.20;0.20;;;;;;;18.76;91.06;99459.75;5004645;28;20049;-72
2023/08/13 03:04:58;;;;;;;0.20;0.20;;;;;;;18.81;91.18;99454.84;4987096;28;20103;-72
2023/08/13 03:07:25;;;;;;;0.20;0.20;;;;;;;18.91;90.77;99458.34;5019937;28;20493;-73
2023/08/13 03:09:51;;;;;;;0.30;0.30;;;;;;;19.01;90.47;99454.38;5021489;28;20054;-71
2023/08/13 03:12:18;;;;;;;0.30;0.30;;;;;;;19.10;89.95;99464.22;5004703;28;20102;-72
2023/08/13 03:14:45;;;;;;;0.20;0.20;;;;;;;19.15;89.82;99465.16;5023012;28;20912;-72
2023/08/13 03:17:11;;;;;;;;;;;;;;;19.17;89.69;99460.06;5005283;28;20468;-72
2023/08/13 03:19:38;;;;;;;0.20;0.20;;;;;;;19.17;88.95;99471.16;5003849;28;19933;-72
2023/08/13 03:22:04;;;;;;;0.30;0.30;;;;;;;19.13;89.59;99474.63;5003778;28;20091;-72
2023/08/13 03:24:33;;;;;;;0.20;0.20;;;;;;;19.12;89.24;99478.53;5006093;28;20417;-72
2023/08/13 03:26:59;;;;;;;0.20;0.20;;;;;;;19.15;89.59;99468.75;5004796;28;20046;-72
2023/08/13 03:29:25;;;;;;;0.28;0.28;;;;;;;19.19;89.40;99477.16;5022397;28;20575;-73
2023/08/13 03:31:54;;;;;;;0.20;0.20;;;;;;;19.17;89.38;99473.94;5002712;28;20068;-72
2023/08/13 03:34:23;;;;;;;0.20;0.20;;;;;;;19.23;89.41;99465.06;4988536;28;20052;-73
2023/08/13 03:36:49;;;;;;;0.20;0.20;;;;;;;19.25;89.01;99464.75;5007927;28;20500;-73
2023/08/13 03:39:15;;;;;;;0.20;0.20;;;;;;;19.38;88.83;99463.63;4972713;28;20057;-72
2023/08/13 03:41:43;;;;;;;0.20;0.20;;;;;;;19.46;88.31;99472.19;5005573;28;20771;-72
2023/08/13 03:44:12;;;;;;;0.38;0.30;;;;;;;19.43;87.75;99470.88;5021368;28;20043;-72
2023/08/13 03:46:38;;;;;;;0.20;0.20;;;;;;;19.45;88.27;99476.94;5003540;28;20151;-72
2023/08/13 03:49:04;;;;;;;0.30;0.30;;;;;;;19.38;87.85;99465.56;5002920;28;20084;-73
2023/08/13 03:51:30;;;;;;;0.30;0.30;;;;;;;19.39;88.07;99470.78;5021099;28;20304;-71
2023/08/13 03:53:57;;;;;;;0.30;0.30;;;;;;;19.47;87.85;99473.78;4973841;28;20049;-73
2023/08/13 03:56:25;;;;;;;0.30;0.30;;;;;;;19.54;87.71;99472.06;4991139;28;20054;-71
2023/08/13 03:58:53;;;;;;;;;;;;;;;19.68;87.26;99474.53;5009868;28;20416;-73
2023/08/13 04:01:20;;;;;;;0.30;0.30;;;;;;;19.79;85.99;99471.31;5004634;28;19925;-73
2023/08/13 04:03:50;;;;;;;0.30;0.30;;;;;;;19.92;85.31;99475.72;5001903;28;20140;-73
2023/08/13 04:06:16;;;;;;;0.20;0.20;;;;;;;20.00;84.88;99478.75;5025252;28;20061;-72
2023/08/13 04:08:42;;;;;;;0.20;0.20;;;;;;;20.19;84.47;99469.84;5006828;28;20141;-73
2023/08/13 04:11:10;;;;;;;0.30;0.30;;;;;;;20.37;83.28;99464.84;5002132;28;20057;-72
2023/08/13 04:13:36;;;;;;;0.30;0.30;;;;;;;20.44;83.10;99478.13;5004886;28;20096;-73
2023/08/13 04:16:04;;;;;;;0.30;0.30;;;;;;;20.51;82.72;99465.28;5005454;28;20076;-73
2023/08/13 04:18:30;;;;;;;0.30;0.30;;;;;;;20.54;81.99;99463.78;5004999;28;20410;-73
2023/08/13 04:20:56;;;;;;;0.30;0.30;;;;;;;20.62;81.92;99467.59;4972118;28;20130;-72
2023/08/13 04:23:23;;;;;;;0.30;0.30;;;;;;;20.63;81.76;99466.44;4987930;28;20136;-73
2023/08/13 04:25:50;;;;;;;0.30;0.30;;;;;;;20.76;81.76;99461.63;5005431;28;20060;-73
2023/08/13 04:28:16;;;;;;;0.30;0.30;;;;;;;20.82;80.74;99465.81;4972584;28;20045;-73
2023/08/13 04:30:45;;;;;;;0.30;0.30;;;;;;;20.82;80.80;99466.63;4986720;28;20063;-73
2023/08/13 04:33:13;;;;;;;0.30;0.30;;;;;;;20.88;80.39;99471.91;5003871;28;20049;-73
2023/08/13 04:35:39;;;;;;;0.30;0.30;;;;;;;21.01;79.67;99469.91;5004813;28;20300;-72
2023/08/13 04:38:05;;;;;;;0.30;0.30;;;;;;;21.09;79.49;99472.53;4991272;28;20482;-72
2023/08/13 04:40:37;;;;;;;0.20;0.20;;;;;;;21.00;79.49;99466.31;4991692;28;20456;-73
2023/08/13 04:43:04;;;;;;;0.25;0.25;;;;;;;20.88;79.96;99456.06;5003324;28;20053;-72
2023/08/13 04:45:31;;;;;;;0.30;0.30;;;;;;;20.84;80.15;99455.16;5004064;28;20073;-72
2023/08/13 04:47:57;;;;;;;0.22;0.22;;;;;;;20.94;80.30;99448.28;5004541;28;20140;-74
2023/08/13 04:50:26;;;;;;;0.30;0.30;;;;;;;21.04;79.52;99444.19;5003459;28;20050;-72
2023/08/13 04:52:52;;;;;;;0.30;0.30;;;;;;;21.16;79.09;99448.88;4988241;28;20045;-72
2023/08/13 04:55:19;;;;;;;0.30;0.30;;;;;;;21.20;78.34;99435.88;4988978;28;20053;-73
2023/08/13 04:57:45;;;;;;;0.30;0.30;;;;;;;21.19;78.43;99435.09;5004458;28;20130;-72
2023/08/13 05:00:14;;;;;;;0.30;0.30;;;;;;;21.28;78.05;99445.22;5004285;28;20049;-72
2023/08/13 05:02:43;;;;;;;0.30;0.30;;;;;;;21.28;77.59;99450.78;5006618;28;20374;-72
2023/08/13 05:05:12;;;;;;;0.30;0.30;;;;;;;21.25;77.63;99439.22;5007444;28;20064;-73
2023/08/13 05:07:41;;;;;;;0.30;0.30;;;;;;;21.22;77.51;99450.22;5006025;28;20158;-71
2023/08/13 05:10:08;;;;;;;0.20;0.20;;;;;;;20.98;77.98;99440.88;4986221;28;20530;-73
2023/08/13 05:12:34;;;;;;;0.30;0.30;;;;;;;20.82;78.72;99438.03;5002822;28;20477;-72
2023/08/13 05:15:01;;;;;;;0.30;0.30;;;;;;;20.76;78.76;99436.63;5025377;28;20139;-73
2023/08/13 05:17:27;;;;;;;0.30;0.30;;;;;;;20.66;79.15;99440.72;4977494;28;20568;-73
2023/08/13 05:19:53;;;;;;;0.30;0.30;;;;;;;20.62;78.77;99437.03;5010937;28;20044;-72
2023/08/13 05:22:19;;;;;;;0.30;0.30;;;;;;;20.65;78.72;99434.34;5008020;28;20059;-72
2023/08/13 05:24:48;;;;;;;0.20;0.20;;;;;;;20.73;78.51;99431.78;4992903;28;20061;-74
2023/08/13 05:27:14;;;;;;;0.30;0.30;;;;;;;20.80;78.21;99431.97;5007070;28;20053;-73
2023/08/13 05:29:41;;;;;;;0.30;0.30;;;;;;;20.99;77.48;99427.75;5009813;28;20060;-74
2023/08/13 05:32:07;;;;;;;0.30;0.30;;;;;;;21.27;76.36;99435.25;5008582;28;20452;-74
2023/08/13 05:34:33;;;;;;;0.30;0.30;;;;;;;21.49;74.54;99428.28;4973646;28;20079;-74
2023/08/13 05:36:59;;;;;;;0.30;0.30;;;;;;;21.54;74.27;99422.47;4989422;28;20861;-74
2023/08/13 05:39:26;;;;;;;0.30;0.30;;;;;;;21.48;74.49;99429.47;4990788;28;20300;-73
2023/08/13 05:41:54;;;;;;;0.30;0.30;;;;;;;21.43;74.41;99422.19;5010014;28;20741;-72
2023/08/13 05:44:21;;;;;;;0.30;0.30;;;;;;;21.31;74.40;99420.31;5014535;28;20099;-72
2023/08/13 05:46:47;;;;;;;0.35;0.35;;;;;;;21.41;74.46;99427.31;4990248;28;20057;-73
2023/08/13 05:49:14;;;;;;;0.30;0.30;;;;;;;21.68;72.98;99430.41;5006963;28;20044;-73
2023/08/13 05:51:40;;;;;;;0.30;0.30;;;;;;;21.86;71.82;99432.81;5017837;28;20041;-72
2023/08/13 05:54:08;;;;;;;0.30;0.30;;;;;;;21.78;71.85;99427.09;5004656;28;20045;-72
2023/08/13 05:56:36;;;;;;;0.30;0.30;;;;;;;21.86;71.67;99430.84;5025574;28;20053;-73
2023/08/13 05:59:04;;;;;;;0.30;0.30;;;;;;;21.84;72.42;99440.72;5006683;28;20111;-73
2023/08/13 06:02:04;;;;;;;0.30;0.30;;;;;;;21.49;71.71;99412.44;5024917;28;20132;-75
2023/08/13 06:04:34;;;;;;;0.30;0.30;;;;;;;21.35;72.81;99425.97;4987974;28;20427;-73
2023/08/13 06:07:01;;;;;;;0.30;0.30;;;;;;;21.47;72.91;99422.28;5028565;28;20061;-72
2023/08/13 06:09:28;;;;;;;0.30;0.30;;;;;;;21.71;72.06;99420.53;5006517;28;20473;-72
2023/08/13 06:11:55;;;;;;;0.30;0.30;;;;;;;21.61;71.51;99427.41;5006463;28;20073;-74
2023/08/13 06:14:23;;;;;;;0.40;0.40;;;;;;;21.30;72.52;99424.25;4992624;28;20049;-74
2023/08/13 06:16:49;;;;;;;0.30;0.30;;;;;;;21.23;72.72;99421.28;5006008;28;20042;-74
2023/08/13 06:19:15;;;;;;;0.40;0.40;;;;;;;21.33;72.69;99431.88;5023756;28;20041;-74
2023/08/13 06:21:41;;;;;;;0.30;0.30;;;;;;;21.56;70.99;99425.72;5024569;28;20052;-72
2023/08/13 06:24:07;;;;;;;0.40;0.40;;;;;;;21.50;69.67;99421.56;5022118;28;20054;-72
2023/08/13 06:26:34;;;;;;;0.30;0.30;;;;;;;21.29;69.82;99430.97;5022289;28;20057;-74
2023/08/13 06:29:00;;;;;;;0.30;0.30;;;;;;;21.14;69.15;99445.66;5013353;28;20061;-73
2023/08/13 06:31:28;;;;;;;0.30;0.30;;;;;;;20.93;69.98;99439.13;5022902;28;20310;-74
2023/08/13 06:33:54;;;;;;;0.30;0.30;;;;;;;20.80;71.13;99440.31;4989754;28;20064;-74
2023/08/13 06:36:21;;;;;;;0.30;0.30;;;;;;;20.79;71.23;99441.47;4990009;28;20051;-75
2023/08/13 06:38:47;;;;;;;0.30;0.30;;;;;;;20.82;71.70;99433.28;4989290;28;20053;-74
2023/08/13 06:41:14;;;;;;;0.30;0.30;;;;;;;20.83;70.27;99443.25;4988430;28;20068;-74
2023/08/13 06:43:40;;;;;;;0.30;0.30;;;;;;;20.80;69.30;99448.66;5022629;28;20038;-74
2023/08/13 06:46:06;;;;;;;0.40;0.40;;;;;;;20.97;66.72;99447.59;5011935;28;20130;-74
2023/08/13 06:48:36;;;;;;;0.30;0.30;;;;;;;21.20;65.14;99444.22;5004936;28;20092;-69
2023/08/13 06:51:02;;;;;;;0.30;0.30;;;;;;;21.25;64.82;99449.53;5026308;28;20072;-70
2023/08/13 06:53:28;;;;;;;0.30;0.30;;;;;;;21.19;64.23;99459.28;5006829;28;20077;-70
2023/08/13 06:55:55;;;;;;;0.30;0.30;;;;;;;21.02;65.01;99454.88;5006196;28;20061;-70
2023/08/13 06:58:21;;;;;;;0.30;0.30;;;;;;;20.93;65.54;99452.25;5006410;28;20046;-70
2023/08/13 07:00:47;;;;;;;0.20;0.20;;;;;;;20.80;65.30;99445.88;5007386;28;20037;-70
2023/08/13 07:03:14;;;;;;;0.30;0.30;;;;;;;20.65;66.67;99476.00;5007138;28;20595;-68
2023/08/13 07:05:41;;;;;;;0.30;0.30;;;;;;;20.46;67.29;99467.50;4991815;28;20799;-69
2023/08/13 07:08:09;;;;;;;0.30;0.30;;;;;;;20.43;67.60;99477.31;5004974;28;20049;-69
2023/08/13 07:10:35;;;;;;;0.30;0.30;;;;;;;20.38;67.13;99470.06;5024586;28;20046;-69
2023/08/13 07:13:02;;;;;;;0.20;0.20;;;;;;;20.41;67.46;99468.53;5004438;28;20049;-66
2023/08/13 07:15:28;;;;;;;0.30;0.30;;;;;;;20.46;67.80;99490.53;5021278;28;20053;-68
2023/08/13 07:17:55;;;;;;;0.30;0.30;;;;;;;20.40;67.02;99469.69;4982856;28;20270;-70
2023/08/13 07:20:22;;;;;;;0.20;0.20;;;;;;;20.47;67.35;99477.44;4982503;28;20051;-70
2023/08/13 07:22:50;;;;;;;0.30;0.30;;;;;;;20.49;67.34;99475.94;4992063;28;20148;-72
2023/08/13 07:25:16;;;;;;;0.30;0.30;;;;;;;20.62;66.74;99471.16;5005099;28;20068;-71
2023/08/13 07:27:43;;;;;;;0.30;0.30;;;;;;;20.75;65.85;99474.69;5003263;28;20053;-71
2023/08/13 07:30:10;;;;;;;;;;;;;;;20.87;65.96;99471.13;4986818;28;20041;-71
2023/08/13 07:32:38;;;;;;;0.30;0.30;;;;;;;21.01;64.82;99473.50;5002958;28;19925;-70
2023/08/13 07:35:06;;;;;;;0.30;0.30;;;;;;;20.91;65.48;99473.97;5022089;28;20073;-71
2023/08/13 07:37:33;;;;;;;0.20;0.20;;;;;;;20.71;66.03;99476.56;5000398;28;20092;-69
2023/08/13 07:40:11;;;;;;;0.20;0.20;;;;;;;20.45;66.57;99480.59;5009638;28;20727;-68
2023/08/13 07:42:39;;;;;;;0.20;0.20;;;;;;;20.20;66.63;99497.25;5001791;28;20053;-69
2023/08/13 07:45:06;;;;;;;0.28;0.28;;;;;;;19.96;67.74;99473.88;4988209;28;20053;-71
2023/08/13 07:47:33;;;;;;;0.20;0.20;;;;;;;19.82;68.06;99488.06;5020803;28;20059;-70
2023/08/13 07:49:59;;;;;;;0.20;0.20;;;;;;;19.74;68.33;99488.19;5023868;28;20054;-69
2023/08/13 07:52:25;;;;;;;0.20;0.20;;;;;;;19.73;69.05;99479.03;5029888;28;20509;-71
2023/08/13 07:54:52;;;;;;;0.20;0.20;;;;;;;19.74;68.05;99502.03;5002381;28;20073;-70
2023/08/13 07:57:19;;;;;;;0.20;0.20;;;;;;;19.72;68.52;99485.72;4991329;28;20539;-71
2023/08/13 07:59:45;;;;;;;0.20;0.20;;;;;;;19.73;68.71;99484.56;5026669;28;20051;-71
2023/08/13 08:02:13;;;;;;;0.20;0.20;;;;;;;19.86;68.41;99495.69;5004993;28;20042;-70
2023/08/13 08:04:39;;;;;;;0.30;0.30;;;;;;;20.08;68.13;99495.28;4991877;28;20049;-71
2023/08/13 08:07:05;;;;;;;0.20;0.20;;;;;;;20.23;67.46;99487.44;5012648;28;20524;-70
2023/08/13 08:09:32;;;;;;;0.30;0.30;;;;;;;20.23;66.85;99484.66;5008660;28;20488;-69
2023/08/13 08:11:58;;;;;;;0.20;0.20;;;;;;;20.06;67.40;99494.00;5010486;28;20495;-69
2023/08/13 08:14:26;;;;;;;0.20;0.20;;;;;;;19.80;68.52;99495.94;4995160;28;20523;-70
2023/08/13 08:16:57;;;;;;;0.20;0.20;;;;;;;19.64;69.38;99490.22;4998286;28;20056;-70
2023/08/13 08:19:24;;;;;;;0.20;0.20;;;;;;;19.56;70.37;99502.25;5013903;28;20056;-70
2023/08/13 08:21:50;;;;;;;0.20;0.20;;;;;;;19.48;70.91;99498.41;5009980;28;20048;-70
2023/08/13 08:24:26;;;;;;;0.30;0.30;;;;;;;19.41;71.21;99493.41;5025952;28;20103;-70
2023/08/13 08:26:54;;;;;;;0.20;0.20;;;;;;;19.35;71.62;99511.41;5010558;28;20057;-68
2023/08/13 08:29:21;;;;;;;0.20;0.20;;;;;;;19.30;72.49;99513.59;5029912;28;20047;-69
2023/08/13 08:31:49;;;;;;;0.20;0.20;;;;;;;19.26;73.33;99513.47;5025600;28;20750;-68
2023/08/13 08:34:15;;;;;;;0.30;0.30;;;;;;;19.28;73.57;99505.63;5008526;28;20037;-68
2023/08/13 08:36:41;;;;;;;0.20;0.20;;;;;;;19.48;73.06;99517.00;5009065;28;20146;-70
2023/08/13 08:39:08;;;;;;;0.30;0.30;;;;;;;19.68;71.71;99515.31;5003220;28;20045;-69
2023/08/13 08:41:36;;;;;;;0.30;0.30;;;;;;;19.86;70.70;99526.22;5006888;28;20138;-70
2023/08/13 08:44:06;;;;;;;0.30;0.30;;;;;;;19.96;69.89;99515.50;5008831;28;20144;-70
2023/08/13 08:46:33;;;;;;;0.30;0.30;;;;;;;20.27;69.06;99525.22;5023578;28;20487;-70
2023/08/13 08:49:00;;;;;;;;;;;;;;;20.88;66.58;99524.72;5011862;28;20483;-71
2023/08/13 08:51:27;;;;;;;0.50;0.50;;;;;;;22.14;63.07;99521.75;5027590;28;20303;-70
2023/08/13 08:53:53;;;;;;;0.30;0.30;;;;;;;23.30;58.69;99517.97;4993779;28;20140;-71
2023/08/13 08:56:21;;;;;;;0.30;0.30;;;;;;;22.66;58.72;99524.59;4999185;28;20607;-69
2023/08/13 08:58:49;;;;;;;0.30;0.30;;;;;;;21.68;61.98;99524.97;5011605;28;20056;-69
2023/08/13 09:01:15;;;;;;;0.30;0.30;;;;;;;20.87;64.81;99523.09;4997257;28;20060;-70
2023/08/13 09:03:42;;;;;;;0.20;0.20;;;;;;;20.37;67.10;99531.47;5026946;28;20076;-69
2023/08/13 09:06:09;;;;;;;0.20;0.20;;;;;;;20.05;68.94;99537.59;5030673;28;20563;-71
2023/08/13 09:08:36;;;;;;;0.20;0.20;;;;;;;19.96;69.66;99536.91;5015308;28;20107;-71
2023/08/13 09:11:02;;;;;;;0.20;0.20;;;;;;;19.86;70.25;99531.75;5033873;28;20049;-70
2023/08/13 09:13:29;;;;;;;0.20;0.20;;;;;;;19.79;70.01;99548.97;5030417;28;20037;-70
2023/08/13 09:15:55;;;;;;;0.20;0.20;;;;;;;19.59;69.58;99550.63;4998509;28;20635;-71
2023/08/13 09:18:22;;;;;;;0.20;0.20;;;;;;;19.54;70.42;99548.91;5030033;28;20067;-71
2023/08/13 09:20:49;;;;;;;0.23;0.23;;;;;;;19.54;69.95;99554.47;5012269;28;20156;-71
2023/08/13 09:23:22;;;;;;;0.20;0.20;;;;;;;19.48;70.05;99551.09;5031227;28;20302;-71
2023/08/13 09:25:52;;;;;;;0.28;0.28;;;;;;;19.41;69.54;99557.19;5006619;28;20540;-71
2023/08/13 09:28:19;;;;;;;0.30;0.30;;;;;;;19.41;70.01;99561.91;4994815;28;20155;-70
2023/08/13 09:30:45;;;;;;;0.30;0.30;;;;;;;19.46;70.28;99563.66;5012943;28;20041;-71
2023/08/13 09:33:14;;;;;;;0.30;0.30;;;;;;;19.50;70.70;99572.91;4987666;28;20046;-70
2023/08/13 09:35:44;;;;;;;0.20;0.20;;;;;;;19.50;70.19;99561.81;5034106;28;20046;-68
2023/08/13 09:38:14;;;;;;;0.20;0.20;;;;;;;19.55;70.53;99570.72;4985908;28;20055;-70
2023/08/13 09:40:45;;;;;;;0.20;0.20;;;;;;;19.48;70.27;99570.50;5001045;28;20336;-71
2023/08/13 09:43:18;;;;;;;0.20;0.20;;;;;;;19.47;69.75;99568.88;5030060;28;20535;-69
2023/08/13 09:45:46;;;;;;;0.30;0.30;;;;;;;19.58;69.41;99574.78;5029961;28;20324;-68
2023/08/13 09:48:14;;;;;;;;;;;;;;;19.83;69.12;99561.81;5025170;28;20096;-68
2023/08/13 09:50:41;;;;;;;0.30;0.30;;;;;;;20.30;67.51;99567.34;5035338;28;19932;-69
2023/08/13 09:53:11;;;;;;;0.30;0.30;;;;;;;20.66;66.43;99554.59;5000641;28;20531;-71
2023/08/13 09:55:43;;;;;;;0.20;0.20;;;;;;;20.68;66.13;99557.81;5008648;28;20156;-71
2023/08/13 09:58:14;;;;;;;0.30;0.30;;;;;;;20.49;67.06;99563.97;4997721;28;20582;-71
2023/08/13 10:00:41;;;;;;;0.20;0.20;;;;;;;20.27;68.06;99566.06;5037149;28;20048;-70
2023/08/13 10:03:08;;;;;;;0.20;0.20;;;;;;;20.05;68.07;99567.31;4998454;28;20037;-69
2023/08/13 10:05:37;;;;;;;0.20;0.20;;;;;;;19.65;68.43;99569.50;5010143;28;20051;-70
2023/08/13 10:08:06;;;;;;;0.20;0.20;;;;;;;19.41;69.59;99579.34;5013435;28;20148;-71
2023/08/13 10:10:32;;;;;;;0.20;0.20;;;;;;;19.30;70.23;99575.38;5019637;28;20424;-71
2023/08/13 10:13:00;;;;;;;0.20;0.20;;;;;;;19.30;70.69;99575.38;5031264;28;20049;-71
2023/08/13 10:15:32;;;;;;;0.30;0.30;;;;;;;19.40;70.62;99576.91;4997396;28;20045;-69
2023/08/13 10:18:02;;;;;;;0.20;0.20;;;;;;;19.47;71.09;99568.03;5000793;28;20128;-71
2023/08/13 10:20:29;;;;;;;0.20;0.20;;;;;;;19.48;71.31;99564.94;5020709;28;20493;-69
2023/08/13 10:22:56;;;;;;;0.30;0.30;;;;;;;19.52;71.60;99565.09;5031312;28;20428;-71
2023/08/13 10:25:26;;;;;;;0.30;0.30;;;;;;;19.58;71.31;99560.09;5025448;28;20045;-68
2023/08/13 10:27:56;;;;;;;0.20;0.20;;;;;;;19.63;71.03;99571.00;4994739;28;20050;-69
2023/08/13 10:30:23;;;;;;;0.30;0.30;;;;;;;19.68;71.40;99565.22;5030401;28;20071;-69
2023/08/13 10:32:58;;;;;;;0.20;0.20;;;;;;;19.54;71.61;99584.94;5028090;28;20117;-69
2023/08/13 10:35:25;;;;;;;0.20;0.20;;;;;;;19.07;74.09;99581.28;4992420;28;20057;-69
2023/08/13 10:37:53;;;;;;;0.20;0.20;;;;;;;18.74;75.85;99570.88;5032822;28;20136;-69
2023/08/13 10:40:20;;;;;;;0.30;0.30;;;;;;;18.67;76.26;99581.66;5029354;28;20049;-69
2023/08/13 10:42:49;;;;;;;0.20;0.20;;;;;;;18.61;76.85;99583.00;4970331;28;20053;-69
2023/08/13 10:45:16;;;;;;;0.20;0.20;;;;;;;18.56;76.65;99573.72;4986906;28;20107;-70
2023/08/13 10:47:51;;;;;;;0.20;0.20;;;;;;;18.52;76.94;99583.84;5004726;28;20057;-70
2023/08/13 10:50:27;;;;;;;0.20;0.20;;;;;;;18.41;77.29;99582.59;4999063;28;20052;-70
2023/08/13 10:52:59;;;;;;;0.20;0.20;;;;;;;18.36;77.39;99588.34;4982986;28;20139;-68
2023/08/13 10:55:30;;;;;;;0.20;0.20;;;;;;;18.35;77.83;99589.47;5001447;28;20049;-69
2023/08/13 10:57:56;;;;;;;0.20;0.20;;;;;;;18.42;77.78;99598.09;5030625;28;20064;-70
2023/08/13 11:00:24;;;;;;;0.20;0.20;;;;;;;18.45;78.13;99597.41;5008895;28;20140;-70
2023/08/13 11:02:54;;;;;;;0.20;0.20;;;;;;;18.45;78.28;99596.59;5010663;28;20049;-69
2023/08/13 11:05:21;;;;;;;0.20;0.20;;;;;;;18.54;77.97;99595.41;4992871;28;20049;-70
2023/08/13 11:07:47;;;;;;;0.22;0.22;;;;;;;18.60;77.50;99600.78;4999911;28;20151;-69
2023/08/13 11:10:18;;;;;;;0.20;0.20;;;;;;;18.57;77.79;99591.16;5007122;28;20053;-69
2023/08/13 11:12:46;;;;;;;0.20;0.20;;;;;;;18.59;78.33;99588.06;5007154;28;20045;-69
2023/08/13 11:15:13;;;;;;;0.20;0.20;;;;;;;18.36;80.28;99599.41;5025129;28;20057;-70
2023/08/13 11:17:46;;;;;;;0.20;0.20;;;;;;;18.16;82.28;99598.19;5009126;28;20055;-69
2023/08/13 11:20:17;;;;;;;0.20;0.20;;;;;;;18.02;83.24;99614.97;5013817;28;20050;-69
2023/08/13 11:22:44;;;;;;;0.20;0.20;;;;;;;17.93;84.16;99603.91;5026733;28;20048;-69
2023/08/13 11:25:10;;;;;;;0.20;0.20;;;;;;;17.93;84.58;99603.91;5025456;28;20152;-70
2023/08/13 11:27:38;;;;;;;0.20;0.20;;;;;;;17.97;84.97;99600.19;5012512;28;20091;-69
2023/08/13 11:30:07;;;;;;;0.20;0.20;;;;;;;18.00;85.33;99601.44;5009585;28;20136;-69
2023/08/13 11:32:36;;;;;;;0.20;0.20;;;;;;;18.08;85.09;99600.66;5011499;28;20053;-69
2023/08/13 11:35:05;;;;;;;0.20;0.20;;;;;;;18.21;84.95;99607.13;5029167;28;20140;-69